createdAt,value
2018-10-11T00:01:24.403Z,62.54
2018-10-11T00:06:29.533Z,62.52
2018-10-11T00:11:33.755Z,63.15
2018-10-11T00:16:38.472Z,63.34
2018-10-11T00:21:44.975Z,63.40
2018-10-11T00:26:49.431Z,63.79
2018-10-11T00:31:53.824Z,63.76
2018-10-11T00:36:58.103Z,64.02
2018-10-11T00:42:02.572Z,64.29
2018-10-11T00:47:12.891Z,64.54
2018-10-11T00:52:19.393Z,64.64
2018-10-11T00:57:24.329Z,64.91
2018-10-11T01:02:29.283Z,65.06
2018-10-11T01:07:34.923Z,65.10
2018-10-11T01:17:57.439Z,65.51
2018-10-11T01:23:01.756Z,65.39
2018-10-11T01:28:06.293Z,65.63
2018-10-11T01:33:11.748Z,66.18
2018-10-11T01:38:16.254Z,66.36
2018-10-11T01:43:21.341Z,66.56
2018-10-11T01:48:25.883Z,66.53
2018-10-11T01:53:31.730Z,66.80
2018-10-11T02:03:52.789Z,67.18
2018-10-11T02:14:14.889Z,67.64
2018-10-11T02:24:38.785Z,67.65
2018-10-11T02:29:45.148Z,67.19
2018-10-11T02:40:04.128Z,67.46
2018-10-11T02:50:25.461Z,67.79
2018-10-11T03:00:44.032Z,67.29
2018-10-11T03:05:49.869Z,67.80
2018-10-11T03:10:55.894Z,67.61
2018-10-11T03:16:01.087Z,67.43
2018-10-11T03:26:20.416Z,68.06
2018-10-11T03:31:25.083Z,68.06
2018-10-11T03:41:44.875Z,67.66
2018-10-11T03:46:50.240Z,67.63
2018-10-11T03:51:55.952Z,67.66
2018-10-11T04:02:15.628Z,68.78
2018-10-11T04:12:35.282Z,69.21
2018-10-11T04:17:40.541Z,68.77
2018-10-11T04:22:45.277Z,69.09
2018-10-11T04:28:00.464Z,69.18
2018-10-11T04:33:05.543Z,69.53
2018-10-11T04:38:11.945Z,69.67
2018-10-11T04:43:18.038Z,69.61
2018-10-11T04:53:39.439Z,68.90
2018-10-11T04:58:45.107Z,69.54
2018-10-11T05:03:51.981Z,69.59
2018-10-11T05:08:56.247Z,69.85
2018-10-11T05:14:00.757Z,69.95
2018-10-11T05:19:05.439Z,69.59
2018-10-11T05:24:09.726Z,69.51
2018-10-11T05:29:14.020Z,69.31
2018-10-11T05:34:18.254Z,68.95
2018-10-11T05:39:23.350Z,68.35
2018-10-11T05:44:27.769Z,68.24
2018-10-11T05:49:32.057Z,68.58
2018-10-11T05:54:36.336Z,68.41
2018-10-11T05:59:40.630Z,67.67
2018-10-11T06:04:44.881Z,67.78
2018-10-11T06:09:49.369Z,68.13
2018-10-11T06:14:53.656Z,68.01
2018-10-11T06:19:57.910Z,67.97
2018-10-11T06:25:02.099Z,68.06
2018-10-11T06:30:06.372Z,67.48
2018-10-11T06:35:10.656Z,67.41
2018-10-11T06:40:15.085Z,66.40
2018-10-11T06:45:19.499Z,65.52
2018-10-11T06:50:23.932Z,65.57
2018-10-11T06:55:28.141Z,65.02
2018-10-11T07:00:32.413Z,65.45
2018-10-11T07:05:36.979Z,65.26
2018-10-11T07:10:41.768Z,65.47
2018-10-11T07:15:46.113Z,64.74
2018-10-11T07:20:50.536Z,63.61
2018-10-11T07:25:54.961Z,63.40
2018-10-11T07:30:59.443Z,63.84
2018-10-11T07:36:03.930Z,63.29
2018-10-11T07:41:08.206Z,62.33
2018-10-11T07:46:12.674Z,62.72
2018-10-11T07:51:17.128Z,62.96
2018-10-11T07:56:22.163Z,62.49
2018-10-11T08:01:26.554Z,61.91
2018-10-11T08:11:46.188Z,60.28
2018-10-11T08:16:51.088Z,60.80
2018-10-11T08:21:55.283Z,59.30
2018-10-11T08:27:04.950Z,59.52
2018-10-11T08:32:09.370Z,59.90
2018-10-11T08:37:13.675Z,59.17
2018-10-11T08:42:18.075Z,58.53
2018-10-11T08:47:22.801Z,56.83
2018-10-11T08:52:27.342Z,53.60
2018-10-11T08:57:32.190Z,49.61
2018-10-11T09:02:36.927Z,44.59
2018-10-11T09:07:41.576Z,38.29
2018-10-11T09:12:45.971Z,35.00
2018-10-11T09:17:50.257Z,31.77
2018-10-11T09:22:54.682Z,29.50
2018-10-11T09:27:59.358Z,27.97
2018-10-11T09:33:03.621Z,26.54
2018-10-11T09:38:08.647Z,24.67
2018-10-11T09:43:13.646Z,24.26
2018-10-11T09:48:19.215Z,22.98
2018-10-11T09:53:23.894Z,23.71
2018-10-11T09:58:28.439Z,24.83
2018-10-11T10:03:33.389Z,25.20
2018-10-11T10:08:37.651Z,29.17
2018-10-11T10:13:42.439Z,30.91
2018-10-11T10:18:47.021Z,35.37
2018-10-11T10:23:51.353Z,41.77
2018-10-11T10:28:55.795Z,45.65
2018-10-11T10:34:00.415Z,46.51
2018-10-11T10:39:06.358Z,45.25
2018-10-11T10:44:10.947Z,46.10
2018-10-11T10:49:15.221Z,46.92
2018-10-11T10:54:23.289Z,45.87
2018-10-11T10:59:27.663Z,44.98
2018-10-11T11:04:31.993Z,46.36
2018-10-11T11:09:35.453Z,45.81
2018-10-11T11:14:39.030Z,46.56
2018-10-11T11:19:42.419Z,45.29
2018-10-11T11:24:45.704Z,45.29
2018-10-11T11:29:49.212Z,44.89
2018-10-11T11:34:52.725Z,45.83
2018-10-11T11:39:56.305Z,45.95
2018-10-11T11:45:00.453Z,46.66
2018-10-11T11:50:13.146Z,46.30
2018-10-11T11:55:16.773Z,45.27
2018-10-11T12:00:23.205Z,45.24
2018-10-11T12:05:26.595Z,43.33
2018-10-11T12:10:30.438Z,39.30
2018-10-11T12:15:34.647Z,35.77
2018-10-11T12:20:39.136Z,34.30
2018-10-11T12:25:43.332Z,31.57
2018-10-11T12:30:46.783Z,31.41
2018-10-11T12:35:51.237Z,29.14
2018-10-11T12:40:55.065Z,28.61
2018-10-11T12:45:58.573Z,28.37
2018-10-11T12:51:02.283Z,28.21
2018-10-11T12:56:05.853Z,28.22
2018-10-11T13:01:09.403Z,25.14
2018-10-11T13:06:13.009Z,25.31
2018-10-11T13:11:16.636Z,21.98
2018-10-11T13:16:20.215Z,20.67
2018-10-11T13:21:23.839Z,19.01
2018-10-11T13:26:28.100Z,19.04
2018-10-11T13:31:32.403Z,19.35
2018-10-11T13:36:37.215Z,21.55
2018-10-11T13:41:41.939Z,24.71
2018-10-11T13:46:46.736Z,23.86
2018-10-11T13:51:51.011Z,25.65
2018-10-11T13:56:58.797Z,24.99
2018-10-11T14:02:00.396Z,27.41
2018-10-11T14:07:04.989Z,26.50
2018-10-11T14:12:09.261Z,28.37
2018-10-11T14:17:13.704Z,29.37
2018-10-11T14:22:18.340Z,28.55
2018-10-11T14:27:23.007Z,30.40
2018-10-11T14:32:27.800Z,30.48
2018-10-11T14:37:32.560Z,30.94
2018-10-11T14:42:37.946Z,30.86
2018-10-11T14:47:42.236Z,31.60
2018-10-11T14:52:46.589Z,31.19
2018-10-11T14:57:51.108Z,32.01
2018-10-11T15:02:55.635Z,30.83
2018-10-11T15:08:00.290Z,31.99
2018-10-11T15:13:04.704Z,31.89
2018-10-11T15:18:09.416Z,32.74
2018-10-11T15:23:13.747Z,32.75
2018-10-11T15:28:18.092Z,32.98
2018-10-11T15:33:22.907Z,32.88
2018-10-11T15:38:27.534Z,34.04
2018-10-11T15:43:32.086Z,34.04
2018-10-11T15:48:36.490Z,33.74
2018-10-11T15:53:41.167Z,34.72
2018-10-11T15:58:45.790Z,33.46
2018-10-11T16:03:50.360Z,33.71
2018-10-11T16:08:55.400Z,33.52
2018-10-11T16:14:03.003Z,34.02
2018-10-11T16:19:09.022Z,34.06
2018-10-11T16:24:13.846Z,33.86
2018-10-11T16:30:47.338Z,33.66
2018-10-11T16:35:52.698Z,34.29
2018-10-11T16:40:57.567Z,35.57
2018-10-11T16:46:02.311Z,35.54
2018-10-11T16:51:06.902Z,35.49
2018-10-11T16:56:12.204Z,36.14
2018-10-11T17:01:16.951Z,37.06
2018-10-11T17:06:21.596Z,37.32
2018-10-11T17:11:26.258Z,37.22
2018-10-11T17:16:30.929Z,36.82
2018-10-11T17:21:35.787Z,37.49
2018-10-11T17:26:40.224Z,37.42
2018-10-11T17:31:44.943Z,38.14
2018-10-11T17:36:49.757Z,39.10
2018-10-11T17:41:54.233Z,39.75
2018-10-11T17:46:59.566Z,38.93
2018-10-11T17:52:04.029Z,39.24
2018-10-11T17:57:08.950Z,39.51
2018-10-11T18:02:15.829Z,39.55
2018-10-11T18:07:20.598Z,40.22
2018-10-11T18:12:26.039Z,41.51
2018-10-11T18:17:32.507Z,42.10
2018-10-11T18:22:37.083Z,42.26
2018-10-11T18:27:41.537Z,42.55
2018-10-11T18:32:46.291Z,43.12
2018-10-11T18:37:50.706Z,43.40
2018-10-11T18:42:55.750Z,43.15
2018-10-11T18:48:00.571Z,42.73
2018-10-11T18:53:05.279Z,43.47
2018-10-11T18:58:14.832Z,44.58
2018-10-11T19:03:19.525Z,45.35
2018-10-11T19:08:23.985Z,45.16
2018-10-11T19:13:29.171Z,45.71
2018-10-11T19:18:33.776Z,45.62
2018-10-11T19:23:38.736Z,45.87
2018-10-11T19:28:43.055Z,45.03
2018-10-11T19:33:47.504Z,44.59
2018-10-11T19:38:52.027Z,43.90
2018-10-11T19:43:56.477Z,43.53
2018-10-11T19:49:01.438Z,43.27
2018-10-11T19:54:05.675Z,44.00
2018-10-11T19:59:15.235Z,44.55
2018-10-11T20:04:19.961Z,44.33
2018-10-11T20:09:29.296Z,44.28
2018-10-11T20:14:34.300Z,44.16
2018-10-11T20:19:52.092Z,44.48
2018-10-11T20:24:56.544Z,44.24
2018-10-11T20:30:00.854Z,44.04
2018-10-11T20:35:05.468Z,44.15
2018-10-11T20:40:09.953Z,44.58
2018-10-11T20:45:14.520Z,44.11
2018-10-11T20:50:19.093Z,44.80
2018-10-11T20:55:23.844Z,44.82
2018-10-11T21:00:28.465Z,45.39
2018-10-11T21:05:32.681Z,45.35
2018-10-11T21:10:36.979Z,45.76
2018-10-11T21:15:41.489Z,46.31
2018-10-11T21:20:45.875Z,46.09
2018-10-11T21:25:50.447Z,46.22
2018-10-11T21:30:54.623Z,46.55
2018-10-11T21:35:58.816Z,46.79
2018-10-11T21:41:03.075Z,47.44
2018-10-11T21:46:07.307Z,48.06
2018-10-11T21:51:11.747Z,48.60
2018-10-11T21:56:16.042Z,48.79
2018-10-11T22:01:22.638Z,49.39
2018-10-11T22:06:27.304Z,50.07
2018-10-11T22:11:32.320Z,50.05
2018-10-11T22:16:36.484Z,50.48
2018-10-11T22:21:40.613Z,50.27
2018-10-11T22:26:44.750Z,50.34
2018-10-11T22:31:48.980Z,50.14
2018-10-11T22:36:53.268Z,50.37
2018-10-11T22:41:57.459Z,49.86
2018-10-11T22:47:01.688Z,50.79
2018-10-11T22:52:06.354Z,51.39
2018-10-11T22:57:10.767Z,51.64
2018-10-11T23:02:15.023Z,52.32
2018-10-11T23:07:19.224Z,52.92
2018-10-11T23:12:23.688Z,53.85
2018-10-11T23:17:27.967Z,54.32
2018-10-11T23:22:32.233Z,54.75
2018-10-11T23:27:36.410Z,55.79
2018-10-11T23:32:41.336Z,55.16
2018-10-11T23:37:45.487Z,56.11
2018-10-11T23:42:49.660Z,56.21
2018-10-11T23:47:54.013Z,56.57
2018-10-11T23:52:58.155Z,57.05
2018-10-11T23:58:03.022Z,57.20
